Time;durP1;ratioP1;P1;durP2;ratioP2;P2;SDS_P1;SDS_P2;PMS_P1;PMS_P2;Temp;Humidity;BMP_temperature;BMP_pressure;BME280_temperature;BME280_humidity;BME280_pressure;Samples;Min_cycle;Max_cycle;Signal;HPM_P1;HPM_P2
2022/01/30 00:00:38;;;;;;;66.97;38.90;;;3.80;92.50;;;;;;5045912;28;20207;-66
2022/01/30 00:03:05;;;;;;;57.93;36.90;;;3.80;92.40;;;;;;5053806;28;20256;-66
2022/01/30 00:05:34;;;;;;;66.30;38.17;;;3.80;92.30;;;;;;5037647;28;20249;-69
2022/01/30 00:08:01;;;;;;;64.97;37.53;;;3.70;92.30;;;;;;5047592;28;20206;-66
2022/01/30 00:10:31;;;;;;;58.57;34.83;;;3.70;92.30;;;;;;5043554;28;20231;-66
2022/01/30 00:13:00;;;;;;;67.30;37.07;;;3.70;92.20;;;;;;5039324;28;20269;-66
2022/01/30 00:15:39;;;;;;;56.83;36.13;;;3.70;92.20;;;;;;5050856;28;20212;-66
2022/01/30 00:18:56;;;;;;;68.50;36.67;;;3.70;92.20;;;;;;5044242;28;20192;-66
2022/01/30 00:21:16;;;;;;;63.20;35.47;;;3.70;92.30;;;;;;5046996;28;20281;-66
2022/01/30 00:23:53;;;;;;;64.40;36.57;;;3.70;92.30;;;;;;5045729;28;20239;-66
2022/01/30 00:26:20;;;;;;;57.20;34.07;;;3.70;92.40;;;;;;5050524;28;20211;-66
2022/01/30 00:28:47;;;;;;;61.33;36.17;;;3.70;92.30;;;;;;5040442;28;20225;-66
2022/01/30 00:31:20;;;;;;;58.00;33.70;;;3.70;92.30;;;;;;5043682;28;20292;-66
2022/01/30 00:33:54;;;;;;;61.33;36.10;;;3.70;92.20;;;;;;5043600;28;20270;-66
2022/01/30 00:36:21;;;;;;;62.97;35.33;;;3.60;92.20;;;;;;5035360;28;20208;-66
2022/01/30 00:38:48;;;;;;;61.87;35.53;;;3.60;92.20;;;;;;5047131;28;20217;-66
2022/01/30 00:41:18;;;;;;;63.97;35.83;;;3.60;92.20;;;;;;5043722;28;20234;-66
2022/01/30 00:43:45;;;;;;;55.83;34.00;;;3.60;92.20;;;;;;5046510;28;20239;-66
2022/01/30 00:46:14;;;;;;;60.13;35.03;;;3.50;92.10;;;;;;5043421;28;20635;-66
2022/01/30 00:48:41;;;;;;;56.40;33.87;;;3.50;92.00;;;;;;5037361;28;20707;-66
2022/01/30 00:51:08;;;;;;;59.87;33.47;;;3.50;91.80;;;;;;5049682;28;20219;-66
2022/01/30 00:53:36;;;;;;;72.90;35.60;;;3.40;91.70;;;;;;5042473;28;20200;-66
2022/01/30 00:56:04;;;;;;;61.90;34.87;;;3.40;91.70;;;;;;5045427;28;20558;-66
2022/01/30 00:58:31;;;;;;;56.67;34.50;;;3.30;91.80;;;;;;5052567;28;21007;-66
2022/01/30 01:00:58;;;;;;;56.27;32.73;;;3.30;91.80;;;;;;5050921;28;20207;-66
2022/01/30 01:03:26;;;;;;;51.50;32.23;;;3.40;91.90;;;;;;5051256;28;20209;-66
2022/01/30 01:05:53;;;;;;;53.97;33.07;;;3.40;91.90;;;;;;5046762;28;20230;-66
2022/01/30 01:08:33;;;;;;;49.43;32.13;;;3.40;91.80;;;;;;5046331;28;20538;-66
2022/01/30 01:25:02;;;;;;;50.50;29.63;;;2.90;91.50;;;;;;5054203;28;20297;-65
2022/01/30 01:27:29;;;;;;;51.20;31.90;;;2.80;91.40;;;;;;5050006;28;20755;-65
2022/01/30 01:29:56;;;;;;;53.63;32.90;;;2.70;91.40;;;;;;5045703;28;20219;-65
2022/01/30 01:32:23;;;;;;;55.97;32.47;;;2.70;91.50;;;;;;5050638;28;20199;-65
2022/01/30 01:34:50;;;;;;;57.83;31.97;;;2.70;91.60;;;;;;5052908;28;20198;-65
2022/01/30 01:37:17;;;;;;;50.37;31.47;;;2.70;91.70;;;;;;5052165;28;20293;-65
2022/01/30 01:39:45;;;;;;;45.83;30.20;;;2.60;91.70;;;;;;5046027;28;20203;-65
2022/01/30 01:42:15;;;;;;;55.63;31.30;;;2.70;91.80;;;;;;5051537;28;20234;-65
2022/01/30 01:44:47;;;;;;;45.47;29.70;;;2.70;91.90;;;;;;5040714;28;20612;-65
2022/01/30 01:47:17;;;;;;;49.27;28.83;;;2.70;92.00;;;;;;5018937;28;20669;-65
2022/01/30 01:49:46;;;;;;;41.97;27.10;;;2.80;91.90;;;;;;5040648;28;20226;-65
2022/01/30 01:54:47;;;;;;;37.80;25.30;;;2.80;91.80;;;;;;5042818;28;20278;-65
2022/01/30 01:57:14;;;;;;;44.47;27.37;;;2.80;91.80;;;;;;5049649;28;20651;-65
2022/01/30 02:00:08;;;;;;;42.43;26.07;;;2.80;91.80;;;;;;5040167;28;20207;-65
2022/01/30 02:02:41;;;;;;;42.37;26.43;;;2.80;91.70;;;;;;5039740;28;20214;-66
2022/01/30 02:05:10;;;;;;;43.20;23.20;;;2.80;91.50;;;;;;5051493;28;20207;-66
2022/01/30 02:10:17;;;;;;;41.03;26.03;;;2.80;91.30;;;;;;5049477;28;20247;-65
2022/01/30 02:12:50;;;;;;;38.63;23.07;;;2.80;91.30;;;;;;5050738;28;20200;-65
2022/01/30 02:26:08;;;;;;;36.87;21.87;;;2.80;91.10;;;;;;5041864;28;20250;-66
2022/01/30 02:28:37;;;;;;;33.77;20.33;;;2.80;91.10;;;;;;5044455;28;20207;-66
2022/01/30 02:31:09;;;;;;;33.47;21.50;;;2.80;91.10;;;;;;5048335;28;20240;-66
2022/01/30 02:33:39;;;;;;;25.73;17.00;;;2.70;91.00;;;;;;5049290;28;20731;-66
2022/01/30 02:36:06;;;;;;;26.27;17.80;;;2.70;90.80;;;;;;5047070;28;20493;-66
2022/01/30 02:38:33;;;;;;;24.53;17.17;;;2.70;90.70;;;;;;5023011;28;20253;-66
2022/01/30 02:41:01;;;;;;;26.87;17.43;;;2.70;90.60;;;;;;5048349;28;20599;-66
2022/01/30 02:43:36;;;;;;;31.63;15.63;;;2.70;90.40;;;;;;5050535;28;20233;-65
2022/01/30 02:46:12;;;;;;;27.43;17.23;;;2.60;90.40;;;;;;5037977;28;20273;-65
2022/01/30 02:48:56;;;;;;;27.67;16.70;;;2.60;90.40;;;;;;5056036;28;20210;-66
2022/01/30 02:51:32;;;;;;;29.27;16.87;;;2.60;90.40;;;;;;5043869;28;20720;-66
2022/01/30 02:54:06;;;;;;;29.47;18.07;;;2.60;90.30;;;;;;5036928;28;20218;-66
2022/01/30 02:56:36;;;;;;;29.17;18.07;;;2.60;90.30;;;;;;5054213;28;21174;-66
2022/01/30 02:59:03;;;;;;;30.40;17.90;;;2.60;90.20;;;;;;5056101;28;20620;-66
2022/01/30 03:01:30;;;;;;;27.90;16.67;;;2.60;90.30;;;;;;5041572;28;20298;-65
2022/01/30 03:03:58;;;;;;;25.23;15.97;;;2.60;90.30;;;;;;5049284;28;20199;-65
2022/01/30 03:06:26;;;;;;;28.43;16.47;;;2.60;90.40;;;;;;5052066;28;20196;-65
2022/01/30 03:08:53;;;;;;;26.53;16.80;;;2.60;90.30;;;;;;5048135;28;20207;-66
2022/01/30 03:11:20;;;;;;;29.30;16.07;;;2.60;90.20;;;;;;5044830;28;20237;-65
2022/01/30 03:13:48;;;;;;;24.77;16.80;;;2.60;90.10;;;;;;5043374;28;20273;-65
2022/01/30 03:16:16;;;;;;;25.50;16.30;;;2.60;90.10;;;;;;5048118;28;20207;-65
2022/01/30 03:18:43;;;;;;;27.23;17.10;;;2.60;90.00;;;;;;5051985;28;20227;-65
2022/01/30 03:21:10;;;;;;;25.13;15.77;;;2.60;90.00;;;;;;5044911;28;20320;-65
2022/01/30 03:23:38;;;;;;;28.90;17.00;;;2.60;90.10;;;;;;5053939;28;20269;-65
2022/01/30 03:26:07;;;;;;;21.70;14.17;;;2.60;90.00;;;;;;5046571;28;20218;-66
2022/01/30 03:29:05;;;;;;;22.93;14.60;;;2.50;90.00;;;;;;5045349;28;20697;-66
2022/01/30 03:31:40;;;;;;;24.13;15.33;;;2.50;90.00;;;;;;5045716;28;20631;-66
2022/01/30 03:34:11;;;;;;;22.37;14.47;;;2.50;90.10;;;;;;5052473;28;20646;-66
2022/01/30 03:36:50;;;;;;;26.93;15.30;;;2.50;90.10;;;;;;5039104;28;20221;-66
2022/01/30 03:39:18;;;;;;;26.37;17.20;;;2.50;90.10;;;;;;5053492;28;20204;-66
2022/01/30 03:41:47;;;;;;;28.50;15.47;;;2.50;90.10;;;;;;5052767;28;20203;-66
2022/01/30 03:44:16;;;;;;;23.73;15.13;;;2.50;90.20;;;;;;5052007;28;20227;-66
2022/01/30 03:46:44;;;;;;;27.37;15.90;;;2.40;90.10;;;;;;5048214;28;20213;-66
2022/01/30 03:49:24;;;;;;;23.47;15.00;;;2.40;90.20;;;;;;5048503;28;20214;-66
2022/01/30 03:51:51;;;;;;;26.70;15.60;;;2.40;90.10;;;;;;5052178;28;20225;-66
2022/01/30 03:54:29;;;;;;;26.50;15.47;;;2.40;89.40;;;;;;5038982;28;20263;-66
2022/01/30 03:56:56;;;;;;;27.67;15.63;;;2.40;89.80;;;;;;5050862;28;20236;-66
2022/01/30 03:59:26;;;;;;;21.03;14.67;;;2.40;90.10;;;;;;5054333;28;20195;-66
2022/01/30 04:01:53;;;;;;;26.20;15.23;;;2.40;90.30;;;;;;5053490;28;20310;-66
2022/01/30 04:04:22;;;;;;;22.40;14.40;;;2.40;90.30;;;;;;5042514;28;20212;-66
2022/01/30 04:06:50;;;;;;;23.20;13.80;;;2.50;90.40;;;;;;5032941;28;20549;-66
2022/01/30 04:09:50;;;;;;;22.17;13.57;;;2.50;90.50;;;;;;5042129;28;20317;-66
2022/01/30 04:12:32;;;;;;;22.20;14.13;;;2.60;90.50;;;;;;5045610;28;20627;-66
2022/01/30 04:15:10;;;;;;;29.00;14.80;;;2.60;90.50;;;;;;5053110;28;20268;-66
2022/01/30 04:17:58;;;;;;;28.27;14.33;;;2.70;90.40;;;;;;5038021;28;20316;-66
2022/01/30 04:20:57;;;;;;;21.63;13.67;;;2.70;90.40;;;;;;5053238;28;20242;-66
2022/01/30 04:23:42;;;;;;;24.87;14.00;;;2.70;90.60;;;;;;5041778;28;20203;-66
2022/01/30 04:26:22;;;;;;;20.17;13.43;;;2.70;90.20;;;;;;5047055;28;20698;-66
2022/01/30 04:28:59;;;;;;;25.00;15.73;;;2.70;90.20;;;;;;5040379;28;20211;-65
2022/01/30 04:31:44;;;;;;;27.50;15.63;;;2.70;90.20;;;;;;5048648;28;20214;-65
2022/01/30 04:34:32;;;;;;;24.27;15.00;;;2.70;90.10;;;;;;5045060;28;20229;-65
2022/01/30 04:37:57;;;;;;;29.63;16.07;;;2.70;90.20;;;;;;5035443;28;20356;-66
2022/01/30 04:58:31;;;;;;;25.43;14.87;;;3.10;90.60;;;;;;5052919;28;20706;-66
2022/01/30 05:01:12;;;;;;;25.23;14.37;;;3.20;90.50;;;;;;5046205;28;20218;-66
2022/01/30 05:06:34;;;;;;;24.73;15.30;;;3.20;90.40;;;;;;5049846;28;20679;-65
2022/01/30 05:09:11;;;;;;;26.43;14.80;;;3.20;90.30;;;;;;5038110;28;20219;-66
2022/01/30 05:12:09;;;;;;;28.30;16.40;;;3.20;90.30;;;;;;5049068;28;20365;-66
2022/01/30 05:15:06;;;;;;;21.87;14.67;;;3.20;90.30;;;;;;5008250;28;20239;-66
2022/01/30 05:17:50;;;;;;;24.00;13.93;;;3.30;90.30;;;;;;5065995;28;20222;-66
2022/01/30 05:20:38;;;;;;;23.67;14.23;;;3.20;89.30;;;;;;5050087;28;20314;-66
2022/01/30 05:23:34;;;;;;;27.93;14.60;;;3.20;88.80;;;;;;5043682;28;20238;-66
2022/01/30 05:26:08;;;;;;;23.30;15.20;;;3.10;88.90;;;;;;5050313;28;20219;-66
2022/01/30 05:28:42;;;;;;;26.60;16.43;;;3.10;89.10;;;;;;5048041;28;20257;-66
2022/01/30 05:31:28;;;;;;;25.23;15.70;;;3.00;89.20;;;;;;5052619;28;20246;-66
2022/01/30 05:34:14;;;;;;;26.00;16.43;;;3.00;89.40;;;;;;5045705;28;20217;-66
2022/01/30 05:36:55;;;;;;;26.77;17.00;;;3.00;89.60;;;;;;5051153;28;20210;-65
2022/01/30 05:39:41;;;;;;;27.83;16.37;;;3.00;89.60;;;;;;5038094;28;20220;-65
2022/01/30 05:42:28;;;;;;;29.70;15.97;;;3.00;89.50;;;;;;5046656;28;20225;-65
2022/01/30 05:45:25;;;;;;;32.17;17.60;;;3.00;89.50;;;;;;5051625;28;20207;-65
2022/01/30 05:48:17;;;;;;;28.20;17.80;;;3.00;89.70;;;;;;5042922;28;20212;-65
2022/01/30 05:51:05;;;;;;;28.70;18.40;;;3.00;89.90;;;;;;5037466;28;20258;-66
2022/01/30 05:53:58;;;;;;;28.40;18.10;;;3.00;90.00;;;;;;5036048;28;20305;-66
2022/01/30 05:56:29;;;;;;;34.23;19.77;;;3.00;90.10;;;;;;5039215;28;20221;-66
2022/01/30 05:59:03;;;;;;;40.70;21.30;;;3.00;90.20;;;;;;5045626;28;20207;-66
2022/01/30 06:01:31;;;;;;;31.30;20.20;;;3.10;90.40;;;;;;5040297;28;20707;-66
2022/01/30 06:04:16;;;;;;;34.33;20.07;;;3.10;90.50;;;;;;5052006;28;20212;-66
2022/01/30 06:06:51;;;;;;;32.53;20.50;;;3.10;90.50;;;;;;5036462;28;20216;-66
2022/01/30 06:09:19;;;;;;;31.10;21.87;;;3.20;90.60;;;;;;5051080;28;20594;-66
2022/01/30 06:11:50;;;;;;;34.77;21.47;;;3.20;90.60;;;;;;5051962;28;20675;-66
2022/01/30 06:14:18;;;;;;;35.57;20.03;;;3.20;90.70;;;;;;5052464;28;20702;-66
2022/01/30 06:16:47;;;;;;;31.00;19.43;;;3.30;90.70;;;;;;5054723;28;20600;-66
2022/01/30 06:19:41;;;;;;;32.33;19.23;;;3.30;90.60;;;;;;5040183;28;20237;-66
2022/01/30 06:22:27;;;;;;;36.47;19.47;;;3.30;90.60;;;;;;5045270;28;20536;-65
2022/01/30 06:25:13;;;;;;;31.87;19.70;;;3.30;90.40;;;;;;5052852;28;20235;-65
2022/01/30 06:27:59;;;;;;;33.07;20.77;;;3.20;90.30;;;;;;5054659;28;20222;-65
2022/01/30 06:30:44;;;;;;;32.40;20.00;;;3.20;90.30;;;;;;5053449;28;20240;-66
2022/01/30 06:33:29;;;;;;;34.13;20.37;;;3.20;90.30;;;;;;5048124;28;20199;-66
2022/01/30 06:36:15;;;;;;;35.07;21.80;;;3.20;90.20;;;;;;5044151;28;20736;-66
2022/01/30 06:38:49;;;;;;;40.57;22.73;;;3.20;89.80;;;;;;5057258;28;20213;-66
2022/01/30 06:41:34;;;;;;;34.47;20.73;;;3.10;90.00;;;;;;5052027;28;20223;-65
2022/01/30 06:44:20;;;;;;;31.33;20.50;;;3.10;90.20;;;;;;5046016;28;20218;-65
2022/01/30 06:47:06;;;;;;;34.13;20.67;;;3.10;90.30;;;;;;5046152;28;20211;-66
2022/01/30 06:49:42;;;;;;;33.50;20.27;;;3.10;90.40;;;;;;5049144;28;20620;-66
2022/01/30 06:52:11;;;;;;;34.23;19.70;;;3.10;90.40;;;;;;5038786;28;20313;-66
2022/01/30 06:54:57;;;;;;;34.10;19.63;;;3.10;90.40;;;;;;5049596;28;20677;-66
2022/01/30 06:57:46;;;;;;;31.40;19.23;;;3.00;90.40;;;;;;5061026;28;20225;-65
2022/01/30 07:00:32;;;;;;;31.93;19.30;;;2.90;90.40;;;;;;5043493;28;20495;-66
2022/01/30 07:03:11;;;;;;;33.67;19.00;;;2.90;90.30;;;;;;5038013;28;20311;-66
2022/01/30 07:05:50;;;;;;;31.27;19.23;;;2.90;90.30;;;;;;5039141;28;20235;-66
2022/01/30 07:08:27;;;;;;;32.30;20.90;;;2.80;90.30;;;;;;5044593;28;20222;-66
2022/01/30 07:10:54;;;;;;;33.97;18.67;;;2.80;90.20;;;;;;5053239;28;20306;-66
2022/01/30 07:13:21;;;;;;;27.00;18.70;;;2.80;89.80;;;;;;5034879;28;20207;-66
2022/01/30 07:15:49;;;;;;;32.50;19.60;;;2.70;89.00;;;;;;5050151;28;20199;-66
2022/01/30 07:18:16;;;;;;;29.33;18.83;;;2.70;89.10;;;;;;5042488;28;20278;-66
2022/01/30 07:20:43;;;;;;;32.97;19.10;;;2.80;88.90;;;;;;5044999;28;20697;-65
2022/01/30 07:23:10;;;;;;;34.47;19.33;;;2.80;87.70;;;;;;5041553;28;20207;-65
2022/01/30 07:25:37;;;;;;;31.90;19.47;;;2.90;86.30;;;;;;5051397;28;20211;-66
2022/01/30 07:28:04;;;;;;;29.30;17.67;;;3.10;85.60;;;;;;5038361;28;20225;-65
2022/01/30 07:30:31;;;;;;;27.17;18.17;;;3.40;84.70;;;;;;5048737;28;20448;-65
2022/01/30 07:32:58;;;;;;;28.90;18.80;;;3.40;84.40;;;;;;5045470;28;20216;-66
2022/01/30 07:35:26;;;;;;;29.00;18.70;;;3.40;84.90;;;;;;5052171;28;20263;-66
2022/01/30 07:37:53;;;;;;;28.57;18.00;;;3.40;85.80;;;;;;5039991;28;20213;-66
2022/01/30 07:40:21;;;;;;;33.47;18.70;;;3.30;86.60;;;;;;5039780;28;20215;-66
2022/01/30 07:42:48;;;;;;;30.00;18.33;;;3.30;87.20;;;;;;5051995;28;20199;-66
2022/01/30 07:45:16;;;;;;;31.17;17.37;;;3.40;87.80;;;;;;5043412;28;20222;-65
2022/01/30 07:47:43;;;;;;;29.90;17.50;;;3.50;88.00;;;;;;5040138;28;20219;-65
2022/01/30 07:50:10;;;;;;;29.30;17.10;;;3.70;87.60;;;;;;5040861;28;20233;-65
2022/01/30 07:52:37;;;;;;;31.97;16.93;;;3.80;86.80;;;;;;5042997;28;20287;-65
2022/01/30 07:55:05;;;;;;;27.20;17.97;;;4.00;86.50;;;;;;5041499;28;20200;-65
2022/01/30 07:57:32;;;;;;;31.20;17.30;;;4.10;86.20;;;;;;5047197;28;20216;-65
2022/01/30 07:59:59;;;;;;;33.30;17.73;;;4.20;85.90;;;;;;5040770;28;20274;-65
2022/01/30 08:02:26;;;;;;;33.20;17.57;;;4.30;85.80;;;;;;5036763;28;20194;-65
2022/01/30 08:04:54;;;;;;;28.87;16.93;;;4.30;85.70;;;;;;5051447;28;20203;-65
2022/01/30 08:07:22;;;;;;;31.57;18.03;;;4.40;85.60;;;;;;5036039;28;20212;-66
2022/01/30 08:09:49;;;;;;;56.10;27.60;;;4.50;85.70;;;;;;5051199;28;20644;-65
2022/01/30 08:12:19;;;;;;;62.13;29.30;;;4.50;85.70;;;;;;5052193;28;20707;-65
2022/01/30 08:14:46;;;;;;;57.10;28.27;;;4.60;85.60;;;;;;5050619;28;20211;-65
2022/01/30 08:17:20;;;;;;;51.63;26.70;;;4.60;85.60;;;;;;5040282;28;20212;-65
2022/01/30 08:19:48;;;;;;;46.50;23.73;;;4.70;84.90;;;;;;5044306;28;20528;-65
2022/01/30 08:22:15;;;;;;;30.87;18.50;;;4.70;84.80;;;;;;5040508;28;20266;-65
2022/01/30 08:24:43;;;;;;;28.67;17.00;;;4.80;84.20;;;;;;5036873;28;20205;-65
2022/01/30 08:27:10;;;;;;;31.70;18.43;;;4.90;84.50;;;;;;5041345;28;20656;-65
2022/01/30 08:29:38;;;;;;;30.27;18.30;;;4.90;84.20;;;;;;5047582;28;20212;-65
2022/01/30 08:32:11;;;;;;;34.60;20.97;;;5.00;84.50;;;;;;5041782;28;20612;-65
2022/01/30 08:34:41;;;;;;;29.77;17.63;;;5.10;84.40;;;;;;5051003;28;20203;-65
2022/01/30 08:37:08;;;;;;;31.23;19.40;;;5.10;84.50;;;;;;5048029;28;20204;-66
2022/01/30 08:39:36;;;;;;;32.33;20.23;;;5.20;84.80;;;;;;5050546;28;20640;-65
2022/01/30 08:42:04;;;;;;;35.37;20.43;;;5.30;85.10;;;;;;5047356;28;20209;-65
2022/01/30 08:44:31;;;;;;;37.30;22.57;;;5.30;84.70;;;;;;5045578;28;20533;-66
2022/01/30 08:46:58;;;;;;;37.27;22.47;;;5.30;84.70;;;;;;5046641;28;20215;-66
2022/01/30 08:49:25;;;;;;;37.70;23.27;;;5.40;84.50;;;;;;5044642;28;20244;-66
2022/01/30 08:51:52;;;;;;;38.70;23.67;;;5.40;85.90;;;;;;5045436;28;20245;-65
2022/01/30 08:54:19;;;;;;;41.47;24.07;;;5.50;86.20;;;;;;5044521;28;20201;-66
2022/01/30 08:56:47;;;;;;;44.40;25.37;;;5.50;86.90;;;;;;5041246;28;20209;-65
2022/01/30 08:59:15;;;;;;;41.67;26.20;;;5.60;86.20;;;;;;5046689;28;20219;-65
2022/01/30 09:01:42;;;;;;;40.63;25.03;;;5.60;86.00;;;;;;5049538;28;20235;-65
2022/01/30 09:04:11;;;;;;;44.63;25.57;;;5.70;85.60;;;;;;5044012;28;20683;-65
2022/01/30 09:06:38;;;;;;;43.53;27.77;;;5.80;84.90;;;;;;5051760;28;20227;-65
2022/01/30 09:09:05;;;;;;;39.67;25.90;;;5.80;84.50;;;;;;5053166;28;20201;-66
2022/01/30 09:11:34;;;;;;;45.73;27.20;;;5.90;85.00;;;;;;5039239;28;20580;-65
2022/01/30 09:14:01;;;;;;;41.50;27.07;;;6.00;84.20;;;;;;5042519;28;20216;-65
2022/01/30 09:16:28;;;;;;;44.00;26.83;;;6.10;83.80;;;;;;5042879;28;20305;-65
2022/01/30 09:18:56;;;;;;;42.80;27.50;;;6.20;83.40;;;;;;5046018;28;20599;-65
2022/01/30 09:21:23;;;;;;;43.50;27.97;;;6.20;83.30;;;;;;5041582;28;20619;-65
2022/01/30 09:23:51;;;;;;;53.37;29.37;;;6.30;83.30;;;;;;5046512;28;20216;-65
2022/01/30 09:26:18;;;;;;;42.43;27.67;;;6.30;83.50;;;;;;5049989;28;20226;-65
2022/01/30 09:28:47;;;;;;;43.13;28.43;;;6.50;83.70;;;;;;5044000;28;20236;-65
2022/01/30 09:31:14;;;;;;;43.90;28.43;;;6.60;83.50;;;;;;5040580;28;20217;-65
2022/01/30 09:33:42;;;;;;;43.07;29.07;;;6.80;83.10;;;;;;5047285;28;20201;-65
2022/01/30 09:36:09;;;;;;;42.53;26.83;;;6.80;82.40;;;;;;5039520;28;20201;-65
2022/01/30 09:38:36;;;;;;;44.00;28.50;;;6.90;82.10;;;;;;5040423;28;20216;-65
2022/01/30 09:41:05;;;;;;;42.10;27.50;;;7.00;81.90;;;;;;5037992;28;20216;-66
2022/01/30 09:43:33;;;;;;;48.33;28.43;;;7.10;81.90;;;;;;5043016;28;20202;-66
2022/01/30 09:46:01;;;;;;;48.80;28.97;;;7.20;81.90;;;;;;5047704;28;20208;-66
2022/01/30 09:48:34;;;;;;;47.27;28.63;;;7.30;81.50;;;;;;5051715;28;20682;-66
2022/01/30 09:51:03;;;;;;;46.37;29.13;;;7.50;81.70;;;;;;5040542;28;20242;-66
2022/01/30 09:53:32;;;;;;;44.80;28.97;;;7.60;80.90;;;;;;5051130;28;20202;-66
2022/01/30 09:56:02;;;;;;;41.40;29.13;;;7.70;80.80;;;;;;5039927;28;20213;-66
2022/01/30 09:58:30;;;;;;;42.60;29.00;;;7.80;80.90;;;;;;5046648;28;20286;-66
2022/01/30 10:00:58;;;;;;;47.43;30.03;;;7.90;81.00;;;;;;5051913;28;20220;-66
2022/01/30 10:03:29;;;;;;;50.97;30.07;;;8.00;80.50;;;;;;5050186;28;20610;-66
2022/01/30 10:06:06;;;;;;;48.73;30.37;;;8.10;79.90;;;;;;5043323;28;20199;-66
2022/01/30 10:08:41;;;;;;;42.33;29.50;;;8.30;79.70;;;;;;5042835;28;20209;-66
2022/01/30 10:12:00;;;;;;;49.90;33.27;;;8.30;79.40;;;;;;5041740;28;20237;-66
2022/01/30 10:14:15;;;;;;;49.40;31.67;;;8.40;79.50;;;;;;5048618;28;20229;-66
2022/01/30 10:17:03;;;;;;;49.40;32.17;;;8.60;79.00;;;;;;5040976;28;20213;-66
2022/01/30 10:19:30;;;;;;;51.10;30.17;;;8.70;79.20;;;;;;5043634;28;20199;-66
2022/01/30 10:22:08;;;;;;;47.73;30.23;;;8.80;78.00;;;;;;5041041;28;20301;-66
2022/01/30 10:24:42;;;;;;;50.23;30.50;;;8.90;78.20;;;;;;5057667;28;20634;-66
2022/01/30 10:27:27;;;;;;;46.57;31.17;;;8.90;78.50;;;;;;5043331;28;20287;-66
2022/01/30 10:30:07;;;;;;;48.77;31.77;;;9.10;78.60;;;;;;5042614;28;20211;-66
2022/01/30 10:32:34;;;;;;;47.90;30.60;;;9.20;78.50;;;;;;5048259;28;20233;-66
2022/01/30 10:35:04;;;;;;;49.00;30.43;;;9.30;78.40;;;;;;5048376;28;20230;-66
2022/01/30 10:37:36;;;;;;;48.07;30.90;;;9.40;78.20;;;;;;5045182;28;20204;-66
2022/01/30 10:40:15;;;;;;;48.90;31.23;;;9.50;77.80;;;;;;5041542;28;20286;-66
2022/01/30 10:42:44;;;;;;;47.10;31.00;;;9.60;77.40;;;;;;5042024;28;20202;-66
2022/01/30 10:45:24;;;;;;;51.47;31.37;;;9.70;76.80;;;;;;5041791;28;20534;-66
2022/01/30 10:47:51;;;;;;;48.37;31.40;;;9.80;76.60;;;;;;5039842;28;20207;-66
2022/01/30 10:50:21;;;;;;;47.97;31.10;;;9.90;76.70;;;;;;5045650;28;20206;-66
2022/01/30 10:52:58;;;;;;;50.83;32.23;;;10.10;76.70;;;;;;5042288;28;20226;-66
2022/01/30 10:55:35;;;;;;;51.50;31.17;;;10.20;75.70;;;;;;5048554;28;20195;-66
2022/01/30 10:58:04;;;;;;;49.80;31.13;;;10.20;75.10;;;;;;5040999;28;20285;-66
2022/01/30 11:00:45;;;;;;;43.57;29.83;;;10.30;74.60;;;;;;5039233;28;20195;-66
2022/01/30 11:03:36;;;;;;;42.53;29.70;;;10.30;75.20;;;;;;5046356;28;20213;-66
2022/01/30 11:06:10;;;;;;;50.83;29.87;;;10.50;75.20;;;;;;5046317;28;20203;-66
2022/01/30 11:08:41;;;;;;;43.67;29.60;;;10.60;75.20;;;;;;5043843;28;20229;-66
2022/01/30 11:11:18;;;;;;;41.27;29.00;;;10.60;74.40;;;;;;5040514;28;20295;-66
2022/01/30 11:14:02;;;;;;;44.77;30.33;;;10.70;74.20;;;;;;5047005;28;20289;-66
2022/01/30 11:19:19;;;;;;;41.47;29.03;;;10.90;74.60;;;;;;5048586;28;20282;-66
2022/01/30 11:21:55;;;;;;;43.90;30.50;;;11.00;74.80;;;;;;5047888;28;20249;-67
2022/01/30 11:24:24;;;;;;;49.70;30.57;;;11.20;74.70;;;;;;5051772;28;20525;-66
2022/01/30 11:26:51;;;;;;;52.47;31.80;;;11.30;74.50;;;;;;5053481;28;20301;-66
2022/01/30 11:29:20;;;;;;;44.40;31.07;;;11.40;74.00;;;;;;5043973;28;20215;-66
2022/01/30 11:31:48;;;;;;;46.13;29.73;;;11.50;74.20;;;;;;5044039;28;20224;-66
2022/01/30 11:34:16;;;;;;;41.87;28.60;;;11.60;74.00;;;;;;5051574;28;20279;-66
2022/01/30 11:36:48;;;;;;;42.73;29.27;;;11.80;73.70;;;;;;5046578;28;20202;-66
2022/01/30 11:39:18;;;;;;;43.27;28.13;;;11.90;73.20;;;;;;5044877;28;20211;-66
2022/01/30 11:42:18;;;;;;;38.20;28.87;;;12.00;72.90;;;;;;5052320;28;20203;-66
2022/01/30 11:45:06;;;;;;;44.20;27.00;;;12.10;72.20;;;;;;5033478;28;20616;-66
2022/01/30 11:48:00;;;;;;;41.73;28.20;;;12.30;71.00;;;;;;5042128;28;20647;-66
2022/01/30 11:50:36;;;;;;;38.97;28.63;;;12.40;70.50;;;;;;5054049;28;20539;-66
2022/01/30 11:53:07;;;;;;;42.90;27.47;;;12.50;70.40;;;;;;5045427;28;20725;-66
2022/01/30 11:55:50;;;;;;;41.47;26.40;;;12.60;69.60;;;;;;5053883;28;20202;-66
2022/01/30 11:58:38;;;;;;;39.20;25.20;;;12.60;68.70;;;;;;5046330;28;20236;-67
2022/01/30 12:01:26;;;;;;;38.90;25.37;;;12.70;67.10;;;;;;5046297;28;20210;-66
2022/01/30 12:03:59;;;;;;;36.60;25.70;;;12.70;68.40;;;;;;5045804;28;20630;-66
2022/01/30 12:06:35;;;;;;;40.50;23.43;;;12.80;68.90;;;;;;5050747;28;20524;-66
2022/01/30 12:09:27;;;;;;;32.13;20.53;;;12.90;68.10;;;;;;5048331;28;20631;-66
2022/01/30 12:11:56;;;;;;;30.33;20.57;;;13.00;66.80;;;;;;5026426;28;20238;-66
2022/01/30 12:14:23;;;;;;;32.80;20.77;;;13.10;66.50;;;;;;5041215;28;20207;-66
2022/01/30 12:17:00;;;;;;;33.70;21.63;;;13.20;67.10;;;;;;5038019;28;20205;-66
2022/01/30 12:19:30;;;;;;;32.60;21.67;;;13.30;64.10;;;;;;5044224;28;20250;-66
2022/01/30 12:22:23;;;;;;;31.53;20.70;;;13.30;65.20;;;;;;5045342;28;20243;-66
2022/01/30 12:24:53;;;;;;;30.57;20.27;;;13.40;65.20;;;;;;5045602;28;20206;-66
2022/01/30 12:27:20;;;;;;;33.60;21.27;;;13.40;65.40;;;;;;5039278;28;20210;-66
2022/01/30 12:29:50;;;;;;;32.83;20.53;;;13.50;65.50;;;;;;5045093;28;20236;-66
2022/01/30 12:32:21;;;;;;;28.43;20.77;;;13.60;65.60;;;;;;5050230;28;20234;-66
2022/01/30 12:34:57;;;;;;;31.73;18.87;;;13.70;65.20;;;;;;5054157;28;20215;-66
2022/01/30 12:37:32;;;;;;;31.83;16.30;;;13.80;63.90;;;;;;5043073;28;20192;-66
2022/01/30 12:40:13;;;;;;;24.97;14.27;;;13.80;63.90;;;;;;5045351;28;20211;-66
2022/01/30 12:42:41;;;;;;;22.50;13.30;;;13.90;61.00;;;;;;5044415;28;20655;-66
2022/01/30 12:45:11;;;;;;;18.50;12.17;;;13.80;60.40;;;;;;5041990;28;20218;-66
2022/01/30 12:47:57;;;;;;;24.60;14.33;;;13.80;60.40;;;;;;5042387;28;20214;-66
2022/01/30 12:50:28;;;;;;;22.47;14.73;;;13.80;61.40;;;;;;5045107;28;20539;-66
2022/01/30 12:52:55;;;;;;;25.53;14.73;;;13.80;62.90;;;;;;5058246;28;20248;-66
2022/01/30 12:55:23;;;;;;;19.07;13.93;;;13.80;63.30;;;;;;5046337;28;20234;-66
2022/01/30 12:57:54;;;;;;;23.33;14.30;;;13.90;61.70;;;;;;5042083;28;20206;-66
2022/01/30 13:00:21;;;;;;;24.53;13.97;;;13.90;62.40;;;;;;5043607;28;20192;-66
2022/01/30 13:02:57;;;;;;;20.23;13.00;;;14.00;62.70;;;;;;5043082;28;20206;-66
2022/01/30 13:05:28;;;;;;;20.00;13.30;;;14.00;61.00;;;;;;5035904;28;20223;-66
2022/01/30 13:07:57;;;;;;;24.70;13.30;;;14.10;62.30;;;;;;5040274;28;20287;-67
2022/01/30 13:10:26;;;;;;;22.13;13.40;;;14.10;62.50;;;;;;5043414;28;20211;-66
2022/01/30 13:12:57;;;;;;;23.23;12.87;;;14.10;62.80;;;;;;5041760;28;20233;-66
2022/01/30 13:15:27;;;;;;;16.53;11.93;;;14.10;63.00;;;;;;5043023;28;20593;-66
2022/01/30 13:17:56;;;;;;;17.03;11.80;;;14.20;62.10;;;;;;5042852;28;20202;-66
2022/01/30 13:20:26;;;;;;;24.13;14.77;;;14.20;60.10;;;;;;5040137;28;20231;-66
2022/01/30 13:22:54;;;;;;;23.50;13.03;;;14.20;60.40;;;;;;5058962;28;20209;-66
2022/01/30 13:25:22;;;;;;;20.00;13.50;;;14.20;59.70;;;;;;5043738;28;20213;-66
2022/01/30 13:27:51;;;;;;;20.00;12.77;;;14.10;60.40;;;;;;5038924;28;20211;-66
2022/01/30 13:30:32;;;;;;;20.07;12.43;;;14.00;60.60;;;;;;5041302;28;20521;-67
2022/01/30 13:32:59;;;;;;;19.37;12.70;;;14.00;60.60;;;;;;5043715;28;20608;-66
2022/01/30 13:35:30;;;;;;;22.63;12.40;;;14.00;60.30;;;;;;5043048;28;20630;-66
2022/01/30 13:38:01;;;;;;;17.70;11.33;;;14.00;61.10;;;;;;5044053;28;20213;-66
2022/01/30 13:40:42;;;;;;;18.40;11.87;;;14.00;60.50;;;;;;5034220;28;20527;-66
2022/01/30 13:43:18;;;;;;;19.23;12.40;;;14.00;59.80;;;;;;5041867;28;20293;-66
2022/01/30 13:48:16;;;;;;;20.23;13.40;;;13.90;60.40;;;;;;5040037;28;20204;-66
2022/01/30 13:50:48;;;;;;;18.87;13.93;;;13.90;61.60;;;;;;5050996;28;20205;-66
2022/01/30 13:53:21;;;;;;;21.93;13.43;;;13.90;61.60;;;;;;5038231;28;20255;-66
2022/01/30 13:56:05;;;;;;;22.47;14.53;;;13.90;60.80;;;;;;5038816;28;20211;-66
2022/01/30 13:58:43;;;;;;;22.73;13.93;;;13.90;60.90;;;;;;5035389;28;20637;-66
2022/01/30 14:01:19;;;;;;;19.53;12.80;;;13.80;60.50;;;;;;5054563;28;20213;-66
2022/01/30 14:03:49;;;;;;;25.93;14.03;;;13.80;61.00;;;;;;5037899;28;20265;-66